sensor_id;sensor_type;location;lat;lon;timestamp;pressure;altitude;pressure_sealevel;temperature;humidity
45864;BME280;31579;52.354;16.974;2023-04-27T00:00:45;-110.3;;;-146.1;100.0
45864;BME280;31579;52.354;16.974;2023-04-27T00:01:50;-110.2;;;-146.1;100.0
45864;BME280;31579;52.354;16.974;2023-04-27T00:02:53;-110.7;;;-146.1;100.0
45864;BME280;31579;52.354;16.974;2023-04-27T00:03:57;-110.3;;;-146.1;100.0
45864;BME280;31579;52.354;16.974;2023-04-27T00:05:07;-109.7;;;-146.1;100.0
45864;BME280;31579;52.354;16.974;2023-04-27T00:06:11;-109.6;;;-146.1;100.0
45864;BME280;31579;52.354;16.974;2023-04-27T00:07:15;-109.7;;;-146.1;100.0
45864;BME280;31579;52.354;16.974;2023-04-27T00:08:19;-110.0;;;-146.1;100.0
45864;BME280;31579;52.354;16.974;2023-04-27T00:09:23;-110.6;;;-146.1;100.0
45864;BME280;31579;52.354;16.974;2023-04-27T00:10:27;-110.9;;;-146.1;100.0
45864;BME280;31579;52.354;16.974;2023-04-27T00:11:31;-111.2;;;-146.1;100.0
45864;BME280;31579;52.354;16.974;2023-04-27T00:12:35;-111.6;;;-146.1;100.0
45864;BME280;31579;52.354;16.974;2023-04-27T00:13:39;-111.9;;;-146.1;100.0
45864;BME280;31579;52.354;16.974;2023-04-27T00:14:43;-112.6;;;-146.1;100.0
45864;BME280;31579;52.354;16.974;2023-04-27T00:15:47;-113.7;;;-146.1;100.0
45864;BME280;31579;52.354;16.974;2023-04-27T00:16:51;-114.8;;;-146.1;100.0
45864;BME280;31579;52.354;16.974;2023-04-27T00:17:55;-115.1;;;-146.1;100.0
45864;BME280;31579;52.354;16.974;2023-04-27T00:18:59;-115.9;;;-146.1;100.0
45864;BME280;31579;52.354;16.974;2023-04-27T00:20:04;-116.3;;;-146.1;100.0
45864;BME280;31579;52.354;16.974;2023-04-27T00:21:08;-116.7;;;-146.1;100.0
45864;BME280;31579;52.354;16.974;2023-04-27T00:22:12;-117.3;;;-146.1;100.0
45864;BME280;31579;52.354;16.974;2023-04-27T00:23:16;-117.6;;;-146.1;100.0
45864;BME280;31579;52.354;16.974;2023-04-27T00:24:20;-118.0;;;-146.1;100.0
45864;BME280;31579;52.354;16.974;2023-04-27T00:25:24;-118.3;;;-146.1;100.0
45864;BME280;31579;52.354;16.974;2023-04-27T00:26:28;-118.8;;;-146.1;100.0
45864;BME280;31579;52.354;16.974;2023-04-27T00:27:39;-115.6;;;-146.1;100.0
45864;BME280;31579;52.354;16.974;2023-04-27T00:28:43;-117.0;;;-146.1;100.0
45864;BME280;31579;52.354;16.974;2023-04-27T00:29:47;-117.5;;;-146.1;100.0
45864;BME280;31579;52.354;16.974;2023-04-27T00:30:51;-118.0;;;-146.1;100.0
45864;BME280;31579;52.354;16.974;2023-04-27T00:31:55;-118.4;;;-146.1;100.0
45864;BME280;31579;52.354;16.974;2023-04-27T00:32:59;-118.9;;;-146.1;100.0
45864;BME280;31579;52.354;16.974;2023-04-27T00:34:03;-119.4;;;-146.1;100.0
45864;BME280;31579;52.354;16.974;2023-04-27T00:35:08;-119.2;;;-146.1;100.0
45864;BME280;31579;52.354;16.974;2023-04-27T00:36:11;-119.5;;;-146.1;100.0
45864;BME280;31579;52.354;16.974;2023-04-27T00:37:15;-119.8;;;-146.1;100.0
45864;BME280;31579;52.354;16.974;2023-04-27T00:38:19;-120.1;;;-146.1;100.0
45864;BME280;31579;52.354;16.974;2023-04-27T00:39:23;-120.3;;;-146.1;100.0
45864;BME280;31579;52.354;16.974;2023-04-27T00:40:27;-120.9;;;-146.1;100.0
45864;BME280;31579;52.354;16.974;2023-04-27T00:41:31;-121.6;;;-146.1;100.0
45864;BME280;31579;52.354;16.974;2023-04-27T00:42:34;-124.4;;;-146.1;100.0
45864;BME280;31579;52.354;16.974;2023-04-27T00:44:42;-124.9;;;-146.1;100.0
45864;BME280;31579;52.354;16.974;2023-04-27T00:45:46;-125.6;;;-146.1;100.0
45864;BME280;31579;52.354;16.974;2023-04-27T00:46:51;-126.1;;;-146.1;100.0
45864;BME280;31579;52.354;16.974;2023-04-27T00:47:54;-126.6;;;-146.1;100.0
45864;BME280;31579;52.354;16.974;2023-04-27T00:48:58;-126.6;;;-146.1;100.0
45864;BME280;31579;52.354;16.974;2023-04-27T00:50:00;-128.4;;;-146.1;100.0
45864;BME280;31579;52.354;16.974;2023-04-27T00:51:04;-128.4;;;-146.1;100.0
45864;BME280;31579;52.354;16.974;2023-04-27T00:52:07;-127.8;;;-146.1;100.0
45864;BME280;31579;52.354;16.974;2023-04-27T00:53:11;-127.5;;;-146.1;100.0
45864;BME280;31579;52.354;16.974;2023-04-27T00:54:17;-127.5;;;-146.1;100.0
45864;BME280;31579;52.354;16.974;2023-04-27T00:55:19;-127.1;;;-146.1;100.0
45864;BME280;31579;52.354;16.974;2023-04-27T00:56:23;-127.1;;;-146.1;100.0
45864;BME280;31579;52.354;16.974;2023-04-27T00:57:27;-126.8;;;-146.1;100.0
45864;BME280;31579;52.354;16.974;2023-04-27T00:58:31;-126.4;;;-146.1;100.0
45864;BME280;31579;52.354;16.974;2023-04-27T00:59:33;-127.9;;;-146.1;100.0
45864;BME280;31579;52.354;16.974;2023-04-27T01:00:38;-126.4;;;-146.1;100.0
45864;BME280;31579;52.354;16.974;2023-04-27T01:01:42;-126.3;;;-146.1;100.0
45864;BME280;31579;52.354;16.974;2023-04-27T01:02:46;-126.1;;;-146.1;100.0
45864;BME280;31579;52.354;16.974;2023-04-27T01:03:50;-125.9;;;-146.1;100.0
45864;BME280;31579;52.354;16.974;2023-04-27T01:04:55;-125.6;;;-146.1;100.0
45864;BME280;31579;52.354;16.974;2023-04-27T01:05:59;-125.4;;;-146.1;100.0
45864;BME280;31579;52.354;16.974;2023-04-27T01:07:03;-125.3;;;-146.1;100.0
45864;BME280;31579;52.354;16.974;2023-04-27T01:08:07;-125.5;;;-146.1;100.0
45864;BME280;31579;52.354;16.974;2023-04-27T01:09:11;-125.6;;;-146.1;100.0
45864;BME280;31579;52.354;16.974;2023-04-27T01:10:15;-125.6;;;-146.1;100.0
45864;BME280;31579;52.354;16.974;2023-04-27T01:11:19;-125.7;;;-146.1;100.0
45864;BME280;31579;52.354;16.974;2023-04-27T01:12:23;-125.8;;;-146.1;100.0
45864;BME280;31579;52.354;16.974;2023-04-27T01:13:27;-126.3;;;-146.1;100.0
45864;BME280;31579;52.354;16.974;2023-04-27T01:14:31;-126.8;;;-146.1;100.0
45864;BME280;31579;52.354;16.974;2023-04-27T01:15:35;-126.8;;;-146.1;100.0
45864;BME280;31579;52.354;16.974;2023-04-27T01:16:39;-126.7;;;-146.1;100.0
45864;BME280;31579;52.354;16.974;2023-04-27T01:17:43;-126.4;;;-146.1;100.0
45864;BME280;31579;52.354;16.974;2023-04-27T01:18:47;-126.3;;;-146.1;100.0
45864;BME280;31579;52.354;16.974;2023-04-27T01:19:51;-126.5;;;-146.1;100.0
45864;BME280;31579;52.354;16.974;2023-04-27T01:20:55;-126.8;;;-146.1;100.0
45864;BME280;31579;52.354;16.974;2023-04-27T01:21:59;-126.9;;;-146.1;100.0
45864;BME280;31579;52.354;16.974;2023-04-27T01:23:03;-127.2;;;-146.1;100.0
45864;BME280;31579;52.354;16.974;2023-04-27T01:24:08;-127.4;;;-146.1;100.0
45864;BME280;31579;52.354;16.974;2023-04-27T01:25:11;-127.8;;;-146.1;100.0
45864;BME280;31579;52.354;16.974;2023-04-27T01:26:15;-127.8;;;-146.1;100.0
45864;BME280;31579;52.354;16.974;2023-04-27T01:27:19;-128.1;;;-146.1;100.0
45864;BME280;31579;52.354;16.974;2023-04-27T01:28:23;-128.1;;;-146.1;100.0
45864;BME280;31579;52.354;16.974;2023-04-27T01:29:27;-128.3;;;-146.1;100.0
45864;BME280;31579;52.354;16.974;2023-04-27T01:30:31;-129.6;;;-146.1;100.0
45864;BME280;31579;52.354;16.974;2023-04-27T01:31:33;-131.6;;;-146.1;100.0
45864;BME280;31579;52.354;16.974;2023-04-27T01:32:50;-129.9;;;-146.1;100.0
45864;BME280;31579;52.354;16.974;2023-04-27T01:33:54;-130.0;;;-146.1;100.0
45864;BME280;31579;52.354;16.974;2023-04-27T01:34:59;-130.0;;;-146.1;100.0
45864;BME280;31579;52.354;16.974;2023-04-27T01:36:04;-129.9;;;-146.1;100.0
45864;BME280;31579;52.354;16.974;2023-04-27T01:37:07;-129.9;;;-146.1;100.0
45864;BME280;31579;52.354;16.974;2023-04-27T01:38:12;-129.7;;;-146.1;100.0
45864;BME280;31579;52.354;16.974;2023-04-27T01:39:16;-129.9;;;-146.1;100.0
45864;BME280;31579;52.354;16.974;2023-04-27T01:40:20;-130.0;;;-146.1;100.0
45864;BME280;31579;52.354;16.974;2023-04-27T01:41:24;-130.5;;;-146.1;100.0
45864;BME280;31579;52.354;16.974;2023-04-27T01:42:28;-130.7;;;-146.1;100.0
45864;BME280;31579;52.354;16.974;2023-04-27T01:43:32;-130.9;;;-146.1;100.0
45864;BME280;31579;52.354;16.974;2023-04-27T01:44:36;-131.1;;;-146.1;100.0
45864;BME280;31579;52.354;16.974;2023-04-27T01:45:40;-131.3;;;-146.1;100.0
45864;BME280;31579;52.354;16.974;2023-04-27T01:46:44;-131.3;;;-146.1;100.0
45864;BME280;31579;52.354;16.974;2023-04-27T01:47:46;-133.6;;;-146.1;100.0
45864;BME280;31579;52.354;16.974;2023-04-27T01:48:50;-133.5;;;-146.1;100.0
45864;BME280;31579;52.354;16.974;2023-04-27T01:49:54;-133.9;;;-146.1;100.0
45864;BME280;31579;52.354;16.974;2023-04-27T01:50:58;-134.5;;;-146.1;100.0
45864;BME280;31579;52.354;16.974;2023-04-27T01:52:00;-136.4;;;-146.1;100.0
45864;BME280;31579;52.354;16.974;2023-04-27T01:53:03;-137.0;;;-146.1;100.0
45864;BME280;31579;52.354;16.974;2023-04-27T01:54:07;-137.3;;;-146.1;100.0
45864;BME280;31579;52.354;16.974;2023-04-27T01:55:11;-137.8;;;-146.1;100.0
45864;BME280;31579;52.354;16.974;2023-04-27T01:56:15;-138.3;;;-146.1;100.0
45864;BME280;31579;52.354;16.974;2023-04-27T01:57:19;-138.5;;;-146.1;100.0
45864;BME280;31579;52.354;16.974;2023-04-27T01:58:23;-138.6;;;-146.1;100.0
45864;BME280;31579;52.354;16.974;2023-04-27T01:59:27;-138.8;;;-146.1;100.0
45864;BME280;31579;52.354;16.974;2023-04-27T02:00:31;-138.9;;;-146.1;100.0
45864;BME280;31579;52.354;16.974;2023-04-27T02:01:35;-138.7;;;-146.1;100.0
45864;BME280;31579;52.354;16.974;2023-04-27T02:02:39;-138.7;;;-146.1;100.0
45864;BME280;31579;52.354;16.974;2023-04-27T02:03:43;-138.9;;;-146.1;100.0
45864;BME280;31579;52.354;16.974;2023-04-27T02:04:47;-138.9;;;-146.1;100.0
45864;BME280;31579;52.354;16.974;2023-04-27T02:05:51;-139.0;;;-146.1;100.0
45864;BME280;31579;52.354;16.974;2023-04-27T02:06:55;-138.9;;;-146.1;100.0
45864;BME280;31579;52.354;16.974;2023-04-27T02:07:59;-138.9;;;-146.1;100.0
45864;BME280;31579;52.354;16.974;2023-04-27T02:09:03;-138.7;;;-146.1;100.0
45864;BME280;31579;52.354;16.974;2023-04-27T02:10:07;-138.6;;;-146.1;100.0
45864;BME280;31579;52.354;16.974;2023-04-27T02:11:11;-138.4;;;-146.1;100.0
45864;BME280;31579;52.354;16.974;2023-04-27T02:12:15;-138.7;;;-146.1;100.0
45864;BME280;31579;52.354;16.974;2023-04-27T02:13:19;-138.8;;;-146.1;100.0
45864;BME280;31579;52.354;16.974;2023-04-27T02:14:23;-138.7;;;-146.1;100.0
45864;BME280;31579;52.354;16.974;2023-04-27T02:15:27;-138.8;;;-146.1;100.0
45864;BME280;31579;52.354;16.974;2023-04-27T02:16:31;-139.3;;;-146.1;100.0
45864;BME280;31579;52.354;16.974;2023-04-27T02:17:35;-139.3;;;-146.1;100.0
45864;BME280;31579;52.354;16.974;2023-04-27T02:18:39;-139.3;;;-146.1;100.0
45864;BME280;31579;52.354;16.974;2023-04-27T02:19:47;-137.9;;;-146.1;100.0
45864;BME280;31579;52.354;16.974;2023-04-27T02:20:51;-138.6;;;-146.1;100.0
45864;BME280;31579;52.354;16.974;2023-04-27T02:21:55;-139.2;;;-146.1;100.0
45864;BME280;31579;52.354;16.974;2023-04-27T02:22:59;-139.6;;;-146.1;100.0
45864;BME280;31579;52.354;16.974;2023-04-27T02:24:03;-140.0;;;-146.1;100.0
45864;BME280;31579;52.354;16.974;2023-04-27T02:25:07;-140.2;;;-146.1;100.0
45864;BME280;31579;52.354;16.974;2023-04-27T02:27:15;-141.0;;;-146.1;100.0
45864;BME280;31579;52.354;16.974;2023-04-27T02:28:19;-141.5;;;-146.1;100.0
45864;BME280;31579;52.354;16.974;2023-04-27T02:29:23;-141.8;;;-146.1;100.0
45864;BME280;31579;52.354;16.974;2023-04-27T02:30:27;-142.1;;;-146.1;100.0
45864;BME280;31579;52.354;16.974;2023-04-27T02:31:31;-142.1;;;-146.1;100.0
45864;BME280;31579;52.354;16.974;2023-04-27T02:32:35;-142.2;;;-146.1;100.0
45864;BME280;31579;52.354;16.974;2023-04-27T02:33:40;-142.2;;;-146.1;100.0
45864;BME280;31579;52.354;16.974;2023-04-27T02:34:50;-141.6;;;-146.1;100.0
45864;BME280;31579;52.354;16.974;2023-04-27T02:35:54;-141.9;;;-146.1;100.0
45864;BME280;31579;52.354;16.974;2023-04-27T02:36:58;-142.3;;;-146.1;100.0
45864;BME280;31579;52.354;16.974;2023-04-27T02:38:00;-143.7;;;-146.1;100.0
45864;BME280;31579;52.354;16.974;2023-04-27T02:39:05;-143.5;;;-146.1;100.0
45864;BME280;31579;52.354;16.974;2023-04-27T02:40:09;-143.9;;;-146.1;100.0
45864;BME280;31579;52.354;16.974;2023-04-27T02:41:13;-144.3;;;-146.1;100.0
45864;BME280;31579;52.354;16.974;2023-04-27T02:42:17;-144.7;;;-146.1;100.0
45864;BME280;31579;52.354;16.974;2023-04-27T02:43:21;-145.0;;;-146.1;100.0
45864;BME280;31579;52.354;16.974;2023-04-27T02:44:25;-145.3;;;-146.1;100.0
45864;BME280;31579;52.354;16.974;2023-04-27T02:45:29;-145.6;;;-146.1;100.0
45864;BME280;31579;52.354;16.974;2023-04-27T02:46:33;-145.6;;;-146.1;100.0
45864;BME280;31579;52.354;16.974;2023-04-27T02:47:37;-145.6;;;-146.1;100.0
45864;BME280;31579;52.354;16.974;2023-04-27T02:48:41;-145.9;;;-146.1;100.0
45864;BME280;31579;52.354;16.974;2023-04-27T02:49:46;-146.3;;;-146.1;100.0
45864;BME280;31579;52.354;16.974;2023-04-27T02:50:50;-146.6;;;-146.1;100.0
45864;BME280;31579;52.354;16.974;2023-04-27T02:51:55;-146.8;;;-146.1;100.0
45864;BME280;31579;52.354;16.974;2023-04-27T02:52:58;-147.0;;;-146.1;100.0
45864;BME280;31579;52.354;16.974;2023-04-27T02:54:00;-147.9;;;-146.1;100.0
45864;BME280;31579;52.354;16.974;2023-04-27T02:55:04;-148.2;;;-146.1;100.0
45864;BME280;31579;52.354;16.974;2023-04-27T02:56:07;-148.2;;;-146.1;100.0
45864;BME280;31579;52.354;16.974;2023-04-27T02:57:11;-148.2;;;-146.1;100.0
45864;BME280;31579;52.354;16.974;2023-04-27T02:58:15;-148.3;;;-146.1;100.0
45864;BME280;31579;52.354;16.974;2023-04-27T02:59:19;-148.3;;;-146.1;100.0
45864;BME280;31579;52.354;16.974;2023-04-27T03:00:24;-148.5;;;-146.1;100.0
45864;BME280;31579;52.354;16.974;2023-04-27T03:01:27;-148.8;;;-146.1;100.0
45864;BME280;31579;52.354;16.974;2023-04-27T03:02:31;-148.9;;;-146.1;100.0
45864;BME280;31579;52.354;16.974;2023-04-27T03:03:35;-148.9;;;-146.1;100.0
45864;BME280;31579;52.354;16.974;2023-04-27T03:04:39;-149.1;;;-146.1;100.0
45864;BME280;31579;52.354;16.974;2023-04-27T03:05:43;-149.1;;;-146.1;100.0
45864;BME280;31579;52.354;16.974;2023-04-27T03:06:48;-149.4;;;-146.1;100.0
45864;BME280;31579;52.354;16.974;2023-04-27T03:07:52;-149.5;;;-146.1;100.0
45864;BME280;31579;52.354;16.974;2023-04-27T03:08:56;-149.5;;;-146.1;100.0
45864;BME280;31579;52.354;16.974;2023-04-27T03:10:00;-149.5;;;-146.1;100.0
45864;BME280;31579;52.354;16.974;2023-04-27T03:11:05;-149.4;;;-146.1;100.0
45864;BME280;31579;52.354;16.974;2023-04-27T03:12:09;-149.5;;;-146.1;100.0
45864;BME280;31579;52.354;16.974;2023-04-27T03:13:13;-149.5;;;-146.1;100.0
45864;BME280;31579;52.354;16.974;2023-04-27T03:14:17;-149.5;;;-146.1;100.0
45864;BME280;31579;52.354;16.974;2023-04-27T03:15:21;-149.6;;;-146.1;100.0
45864;BME280;31579;52.354;16.974;2023-04-27T03:16:25;-149.8;;;-146.1;100.0
45864;BME280;31579;52.354;16.974;2023-04-27T03:17:29;-149.8;;;-146.1;100.0
45864;BME280;31579;52.354;16.974;2023-04-27T03:18:33;-149.8;;;-146.1;100.0
45864;BME280;31579;52.354;16.974;2023-04-27T03:19:37;-149.8;;;-146.1;100.0
45864;BME280;31579;52.354;16.974;2023-04-27T03:20:41;-149.8;;;-146.1;100.0
45864;BME280;31579;52.354;16.974;2023-04-27T03:21:46;-149.5;;;-146.1;100.0
45864;BME280;31579;52.354;16.974;2023-04-27T03:22:50;-149.6;;;-146.1;100.0
45864;BME280;31579;52.354;16.974;2023-04-27T03:23:54;-149.7;;;-146.1;100.0
45864;BME280;31579;52.354;16.974;2023-04-27T03:24:58;-149.6;;;-146.1;100.0
45864;BME280;31579;52.354;16.974;2023-04-27T03:26:09;-149.7;;;-146.1;100.0
45864;BME280;31579;52.354;16.974;2023-04-27T03:27:12;-149.8;;;-146.1;100.0
45864;BME280;31579;52.354;16.974;2023-04-27T03:28:31;-149.5;;;-146.1;100.0
45864;BME280;31579;52.354;16.974;2023-04-27T03:29:35;-149.5;;;-146.1;100.0
45864;BME280;31579;52.354;16.974;2023-04-27T03:30:39;-149.8;;;-146.1;100.0
45864;BME280;31579;52.354;16.974;2023-04-27T03:31:43;-150.1;;;-146.1;100.0
45864;BME280;31579;52.354;16.974;2023-04-27T03:32:47;-150.3;;;-146.1;100.0
45864;BME280;31579;52.354;16.974;2023-04-27T03:33:51;-150.4;;;-146.1;100.0
45864;BME280;31579;52.354;16.974;2023-04-27T03:34:55;-150.4;;;-146.1;100.0
45864;BME280;31579;52.354;16.974;2023-04-27T03:35:59;-150.4;;;-146.1;100.0
45864;BME280;31579;52.354;16.974;2023-04-27T03:37:03;-150.4;;;-146.1;100.0
45864;BME280;31579;52.354;16.974;2023-04-27T03:38:07;-150.5;;;-146.1;100.0
45864;BME280;31579;52.354;16.974;2023-04-27T03:39:26;-149.8;;;-146.1;100.0
45864;BME280;31579;52.354;16.974;2023-04-27T03:40:30;-150.1;;;-146.1;100.0
45864;BME280;31579;52.354;16.974;2023-04-27T03:41:34;-150.4;;;-146.1;100.0
45864;BME280;31579;52.354;16.974;2023-04-27T03:42:38;-150.5;;;-146.1;100.0
45864;BME280;31579;52.354;16.974;2023-04-27T03:43:42;-150.7;;;-146.1;100.0
45864;BME280;31579;52.354;16.974;2023-04-27T03:44:46;-150.9;;;-146.1;100.0
45864;BME280;31579;52.354;16.974;2023-04-27T03:45:50;-151.1;;;-146.1;100.0
45864;BME280;31579;52.354;16.974;2023-04-27T03:46:54;-151.2;;;-146.1;100.0
45864;BME280;31579;52.354;16.974;2023-04-27T03:47:58;-151.4;;;-146.1;100.0
45864;BME280;31579;52.354;16.974;2023-04-27T03:49:00;-151.7;;;-146.1;100.0
45864;BME280;31579;52.354;16.974;2023-04-27T03:50:05;-151.7;;;-146.1;100.0
45864;BME280;31579;52.354;16.974;2023-04-27T03:51:09;-151.9;;;-146.1;100.0
45864;BME280;31579;52.354;16.974;2023-04-27T03:52:13;-152.0;;;-146.1;100.0
45864;BME280;31579;52.354;16.974;2023-04-27T03:53:17;-152.0;;;-146.1;100.0
45864;BME280;31579;52.354;16.974;2023-04-27T03:54:21;-152.0;;;-146.1;100.0
45864;BME280;31579;52.354;16.974;2023-04-27T03:55:26;-152.0;;;-146.1;100.0
45864;BME280;31579;52.354;16.974;2023-04-27T03:56:30;-152.1;;;-146.1;100.0
45864;BME280;31579;52.354;16.974;2023-04-27T03:57:34;-152.3;;;-146.1;100.0
45864;BME280;31579;52.354;16.974;2023-04-27T03:58:38;-152.2;;;-146.1;100.0
45864;BME280;31579;52.354;16.974;2023-04-27T03:59:42;-152.3;;;-146.1;100.0
45864;BME280;31579;52.354;16.974;2023-04-27T04:00:46;-152.3;;;-146.1;100.0
45864;BME280;31579;52.354;16.974;2023-04-27T04:01:50;-152.4;;;-146.1;100.0
45864;BME280;31579;52.354;16.974;2023-04-27T04:02:54;-152.4;;;-146.1;100.0
45864;BME280;31579;52.354;16.974;2023-04-27T04:03:58;-152.4;;;-146.1;100.0
45864;BME280;31579;52.354;16.974;2023-04-27T04:05:00;-152.2;;;-146.1;100.0
45864;BME280;31579;52.354;16.974;2023-04-27T04:06:03;-151.6;;;-146.1;100.0
45864;BME280;31579;52.354;16.974;2023-04-27T04:07:07;-152.4;;;-146.1;100.0
45864;BME280;31579;52.354;16.974;2023-04-27T04:08:12;-152.5;;;-146.1;100.0
45864;BME280;31579;52.354;16.974;2023-04-27T04:09:15;-152.5;;;-146.1;100.0
45864;BME280;31579;52.354;16.974;2023-04-27T04:10:19;-152.5;;;-146.1;100.0
45864;BME280;31579;52.354;16.974;2023-04-27T04:11:23;-152.5;;;-146.1;100.0
45864;BME280;31579;52.354;16.974;2023-04-27T04:12:27;-152.5;;;-146.1;100.0
45864;BME280;31579;52.354;16.974;2023-04-27T04:13:31;-152.5;;;-146.1;100.0
45864;BME280;31579;52.354;16.974;2023-04-27T04:14:35;-152.5;;;-146.1;100.0
45864;BME280;31579;52.354;16.974;2023-04-27T04:15:39;-152.5;;;-146.1;100.0
45864;BME280;31579;52.354;16.974;2023-04-27T04:16:43;-152.4;;;-146.1;100.0
45864;BME280;31579;52.354;16.974;2023-04-27T04:17:47;-152.4;;;-146.1;100.0
45864;BME280;31579;52.354;16.974;2023-04-27T04:18:52;-152.4;;;-146.1;100.0
45864;BME280;31579;52.354;16.974;2023-04-27T04:19:56;-152.3;;;-146.1;100.0
45864;BME280;31579;52.354;16.974;2023-04-27T04:21:00;-152.3;;;-146.1;100.0
45864;BME280;31579;52.354;16.974;2023-04-27T04:22:03;-145.1;;;-146.1;100.0
45864;BME280;31579;52.354;16.974;2023-04-27T04:23:07;-150.3;;;-146.1;100.0
45864;BME280;31579;52.354;16.974;2023-04-27T04:24:11;-150.3;;;-146.1;100.0
45864;BME280;31579;52.354;16.974;2023-04-27T04:25:15;-150.0;;;-146.1;100.0
45864;BME280;31579;52.354;16.974;2023-04-27T04:26:19;-149.6;;;-146.1;100.0
45864;BME280;31579;52.354;16.974;2023-04-27T04:27:23;-149.0;;;-146.1;100.0
45864;BME280;31579;52.354;16.974;2023-04-27T04:28:27;-148.7;;;-146.1;100.0
45864;BME280;31579;52.354;16.974;2023-04-27T04:29:31;-148.1;;;-146.1;100.0
45864;BME280;31579;52.354;16.974;2023-04-27T04:30:35;-147.5;;;-146.1;100.0
45864;BME280;31579;52.354;16.974;2023-04-27T04:31:39;-146.5;;;-146.1;100.0
45864;BME280;31579;52.354;16.974;2023-04-27T04:32:43;-145.5;;;-146.1;100.0
45864;BME280;31579;52.354;16.974;2023-04-27T04:33:47;-144.5;;;-146.1;100.0
45864;BME280;31579;52.354;16.974;2023-04-27T04:34:51;-143.0;;;-146.1;100.0
45864;BME280;31579;52.354;16.974;2023-04-27T04:35:55;-141.5;;;-146.1;100.0
45864;BME280;31579;52.354;16.974;2023-04-27T04:36:59;-139.9;;;-146.1;100.0
45864;BME280;31579;52.354;16.974;2023-04-27T04:38:03;-138.3;;;-146.1;100.0
45864;BME280;31579;52.354;16.974;2023-04-27T04:39:07;-136.3;;;-146.1;100.0
45864;BME280;31579;52.354;16.974;2023-04-27T04:40:11;-134.4;;;-146.1;100.0
45864;BME280;31579;52.354;16.974;2023-04-27T04:41:15;-132.5;;;-146.1;100.0
45864;BME280;31579;52.354;16.974;2023-04-27T04:42:19;-130.6;;;-146.1;100.0
45864;BME280;31579;52.354;16.974;2023-04-27T04:43:23;-128.3;;;-146.1;100.0
45864;BME280;31579;52.354;16.974;2023-04-27T04:44:27;-125.6;;;-146.1;100.0
45864;BME280;31579;52.354;16.974;2023-04-27T04:45:31;-122.0;;;-146.1;100.0
45864;BME280;31579;52.354;16.974;2023-04-27T04:46:35;-118.8;;;-146.1;100.0
45864;BME280;31579;52.354;16.974;2023-04-27T04:47:39;-115.5;;;-146.1;100.0
45864;BME280;31579;52.354;16.974;2023-04-27T04:48:43;-111.7;;;-146.1;100.0
45864;BME280;31579;52.354;16.974;2023-04-27T04:49:47;-107.3;;;-146.1;100.0
45864;BME280;31579;52.354;16.974;2023-04-27T04:50:51;-103.0;;;-146.1;100.0
45864;BME280;31579;52.354;16.974;2023-04-27T04:51:55;-98.0;;;-146.1;100.0
45864;BME280;31579;52.354;16.974;2023-04-27T04:52:59;-92.6;;;-146.1;100.0
45864;BME280;31579;52.354;16.974;2023-04-27T04:54:03;-88.1;;;-146.1;100.0
45864;BME280;31579;52.354;16.974;2023-04-27T04:55:07;-83.4;;;-146.1;100.0
45864;BME280;31579;52.354;16.974;2023-04-27T04:56:12;-77.6;;;-146.1;100.0
45864;BME280;31579;52.354;16.974;2023-04-27T04:57:15;-73.3;;;-146.1;100.0
45864;BME280;31579;52.354;16.974;2023-04-27T04:58:19;-68.3;;;-146.1;100.0
45864;BME280;31579;52.354;16.974;2023-04-27T04:59:23;-62.7;;;-146.1;100.0
45864;BME280;31579;52.354;16.974;2023-04-27T05:00:27;-57.4;;;-146.1;100.0
45864;BME280;31579;52.354;16.974;2023-04-27T05:01:31;-51.3;;;-146.1;100.0
45864;BME280;31579;52.354;16.974;2023-04-27T05:02:35;-44.2;;;-146.1;100.0
45864;BME280;31579;52.354;16.974;2023-04-27T05:03:39;-37.6;;;-146.1;100.0
45864;BME280;31579;52.354;16.974;2023-04-27T05:04:43;-30.3;;;-146.1;100.0
45864;BME280;31579;52.354;16.974;2023-04-27T05:05:47;-22.0;;;-146.1;100.0
45864;BME280;31579;52.354;16.974;2023-04-27T05:06:51;-15.6;;;-146.1;100.0
45864;BME280;31579;52.354;16.974;2023-04-27T05:07:55;-10.7;;;-146.1;100.0
45864;BME280;31579;52.354;16.974;2023-04-27T05:08:59;-5.1;;;-146.1;100.0
45864;BME280;31579;52.354;16.974;2023-04-27T05:10:03;1.9;;;-146.1;100.0
45864;BME280;31579;52.354;16.974;2023-04-27T05:11:07;8.0;;;-146.1;100.0
45864;BME280;31579;52.354;16.974;2023-04-27T05:12:11;11.8;;;-146.1;100.0
45864;BME280;31579;52.354;16.974;2023-04-27T05:13:15;16.1;;;-146.1;100.0
45864;BME280;31579;52.354;16.974;2023-04-27T05:14:19;21.0;;;-146.1;100.0
45864;BME280;31579;52.354;16.974;2023-04-27T05:15:23;24.8;;;-146.1;100.0
45864;BME280;31579;52.354;16.974;2023-04-27T05:16:27;28.3;;;-146.1;100.0
45864;BME280;31579;52.354;16.974;2023-04-27T05:17:31;34.9;;;-146.1;100.0
45864;BME280;31579;52.354;16.974;2023-04-27T05:18:35;38.0;;;-146.1;100.0
45864;BME280;31579;52.354;16.974;2023-04-27T05:19:39;42.8;;;-146.1;100.0
45864;BME280;31579;52.354;16.974;2023-04-27T05:20:43;53.5;;;-146.1;100.0
45864;BME280;31579;52.354;16.974;2023-04-27T05:21:47;62.3;;;-146.1;100.0
45864;BME280;31579;52.354;16.974;2023-04-27T05:22:51;68.3;;;-146.1;100.0
45864;BME280;31579;52.354;16.974;2023-04-27T05:23:55;69.6;;;-146.1;100.0
45864;BME280;31579;52.354;16.974;2023-04-27T05:24:59;73.1;;;-146.1;100.0
45864;BME280;31579;52.354;16.974;2023-04-27T05:26:09;76.2;;;-146.1;100.0
45864;BME280;31579;52.354;16.974;2023-04-27T05:27:07;79.1;;;-146.1;100.0
45864;BME280;31579;52.354;16.974;2023-04-27T05:28:11;83.8;;;-146.1;100.0
45864;BME280;31579;52.354;16.974;2023-04-27T05:29:15;93.6;;;-146.1;100.0
45864;BME280;31579;52.354;16.974;2023-04-27T05:30:19;99.4;;;-146.1;100.0
45864;BME280;31579;52.354;16.974;2023-04-27T05:31:23;97.3;;;-146.1;100.0
45864;BME280;31579;52.354;16.974;2023-04-27T05:32:27;102.4;;;-146.1;100.0
45864;BME280;31579;52.354;16.974;2023-04-27T05:33:31;101.6;;;-146.1;100.0
45864;BME280;31579;52.354;16.974;2023-04-27T05:34:35;101.3;;;-146.1;100.0
45864;BME280;31579;52.354;16.974;2023-04-27T05:35:39;101.8;;;-146.1;100.0
45864;BME280;31579;52.354;16.974;2023-04-27T05:36:43;102.2;;;-146.1;100.0
45864;BME280;31579;52.354;16.974;2023-04-27T05:37:47;97.3;;;-146.1;100.0
45864;BME280;31579;52.354;16.974;2023-04-27T05:38:51;95.5;;;-146.1;100.0
45864;BME280;31579;52.354;16.974;2023-04-27T05:39:55;96.9;;;-146.1;100.0
45864;BME280;31579;52.354;16.974;2023-04-27T05:40:59;94.3;;;-146.1;100.0
45864;BME280;31579;52.354;16.974;2023-04-27T05:42:03;94.9;;;-146.1;100.0
45864;BME280;31579;52.354;16.974;2023-04-27T05:43:07;96.2;;;-146.1;100.0